Airfield :
LOGIN :

Register | Disclaimer

   EN    FR    IT 

 










Legend :    VFR   Marginal VFR   IFR   Intensive IFR   Very Intensive IFR
Visi :
Ceiling :
>= 8 km
>= 3000ft
5 to 8 km
1000 to 3000 ft
1500m to 5 km
500 to 1000 ft
800 to 1500m
200 to 500 ft
< 800m
< 200 ft
Symbols :   Thunderstorms  Fog  Heavy snow  Heavy precipitations  Wind > 20 kt
SIGMETs :     Misc.  Thunderstorms  Icing  Turbulence  Mountain Waves  Volcanic Ashes







- Airport Elevation : 124 ft
- IATA code : NHT
- Download approach charts


EGWU - RAF Northolt

CURRENT METAR :
  • 261023Z 04009KT 9999 BKN011 OVC013 17/14 Q1028 BECMG SCT018 RMK GRN BECMG WHT

EXPIRED METARs :
  • 260950Z 07010KT 9999 BKN010 OVC011 17/13 Q1028 BECMG SCT015 RMK GRN BECMG WHT
  • 260920Z 07009KT 9999 BKN010 OVC011 16/13 Q1028 BECMG SCT018 RMK GRN BECMG WHT
  • 260850Z 04012KT 9999 BKN007 OVC008 16/14 Q1027 BECMG SCT015 RMK GRN BECMG WHT
  • 260820Z 05011KT 9999 BKN007 OVC008 16/13 Q1027 BECMG SCT015
  • 260750Z 05011KT 9999 OVC007 16/14 Q1027 NOSIG RMK GRN GRN

TAF TAF EGWU
Valid from the 26 at 09:00 until the 27 at 03:00 UTC


260736Z 2609/2703 04012KT 9999 BKN010
BECMG 2609/2613 SCT025
PROB40 2621/2703 SCT012
No reported NOTAMs for that airfield.



MET'MAP, your aeronautical weather chart ! - Copyright ORBIFLY December 2007 - Disclaimer

ORBIFLY MET'MAP TEAM :

Programming & Development : Alexandra Zaïnal
Concept & Development : Baudouin d'Aumeries
Co-Development & Prog : Marc-Olivier Méhu
Technical & hardware support : Manuel Goepfert

Contact : metmap@orbifly.com




SOURCES & CREDITS :

   NOAA